Time;durP1;ratioP1;P1;durP2;ratioP2;P2;SDS_P1;SDS_P2;PMS_P1;PMS_P2;Temp;Humidity;BMP_temperature;BMP_pressure;BME280_temperature;BME280_humidity;BME280_pressure;Samples;Min_cycle;Max_cycle;Signal;HPM_P1;HPM_P2
2022/07/28 00:01:10;;;;;;;8.00;7.18;;;16.60;99.90;;;;;;6159311;23;20033;-77
2022/07/28 00:03:37;;;;;;;10.35;7.68;;;16.60;99.90;;;;;;6153423;23;20037;-77
2022/07/28 00:06:05;;;;;;;8.02;7.22;;;16.50;99.90;;;;;;6135394;23;20760;-80
2022/07/28 00:08:33;;;;;;;10.95;8.55;;;16.50;99.90;;;;;;6152075;23;20037;-80
2022/07/28 00:11:00;;;;;;;10.30;8.60;;;16.50;99.90;;;;;;6158872;23;20032;-79
2022/07/28 00:13:30;;;;;;;9.63;7.90;;;16.50;99.90;;;;;;6161766;23;20021;-80
2022/07/28 00:16:01;;;;;;;8.45;7.40;;;16.40;99.90;;;;;;6154755;23;20457;-79
2022/07/28 00:18:29;;;;;;;9.27;8.02;;;16.40;99.90;;;;;;6160945;23;20022;-80
2022/07/28 00:20:57;;;;;;;9.00;7.20;;;16.40;99.90;;;;;;6126074;23;20800;-80
2022/07/28 00:23:24;;;;;;;8.10;7.40;;;16.40;99.90;;;;;;6130660;23;20022;-80
2022/07/28 00:26:06;;;;;;;24.45;8.75;;;16.30;99.90;;;;;;6126328;23;20013;-80
2022/07/28 00:28:34;;;;;;;10.27;7.88;;;16.40;99.90;;;;;;6151934;23;20036;-80
2022/07/28 00:31:01;;;;;;;10.73;8.30;;;16.30;99.90;;;;;;6132471;23;20021;-79
2022/07/28 00:33:34;;;;;;;10.35;6.18;;;16.20;99.90;;;;;;6161797;23;20339;-79
2022/07/28 00:36:02;;;;;;;10.55;7.88;;;16.20;99.90;;;;;;6154209;23;20480;-79
2022/07/28 00:38:30;;;;;;;14.10;7.13;;;16.10;99.90;;;;;;6159747;23;20022;-80
2022/07/28 00:41:10;;;;;;;13.55;7.85;;;16.10;99.90;;;;;;6162244;23;20021;-79
2022/07/28 00:43:44;;;;;;;8.10;7.13;;;16.20;99.90;;;;;;6155779;23;20024;-80
2022/07/28 00:46:13;;;;;;;12.52;7.40;;;16.10;99.90;;;;;;6161854;23;20449;-79
2022/07/28 00:48:46;;;;;;;10.32;9.35;;;16.10;99.90;;;;;;6150284;23;20661;-79
2022/07/28 00:51:15;;;;;;;10.60;9.00;;;16.10;99.90;;;;;;6157721;23;20196;-80
2022/07/28 00:53:44;;;;;;;9.90;7.40;;;16.00;99.90;;;;;;6125707;23;20018;-79
2022/07/28 00:56:13;;;;;;;8.45;6.53;;;16.00;99.90;;;;;;6153211;23;20349;-79
2022/07/28 00:58:41;;;;;;;11.85;8.05;;;15.90;99.90;;;;;;6156238;23;20031;-80
2022/07/28 01:01:10;;;;;;;6.72;5.95;;;15.90;99.90;;;;;;6161526;23;20476;-80
2022/07/28 01:03:40;;;;;;;8.07;7.18;;;15.90;99.90;;;;;;6155385;23;20811;-80
2022/07/28 01:06:38;;;;;;;7.85;6.80;;;15.90;99.90;;;;;;6161649;23;20017;-79
2022/07/28 01:09:15;;;;;;;10.35;7.20;;;15.90;99.90;;;;;;6179951;23;20032;-79
2022/07/28 01:11:54;;;;;;;7.75;7.00;;;15.90;99.90;;;;;;6155306;23;20870;-79
2022/07/28 01:14:59;;;;;;;19.42;8.43;;;15.80;99.90;;;;;;6160220;23;20345;-79
2022/07/28 01:17:56;;;;;;;9.50;7.95;;;15.70;99.90;;;;;;6118008;23;20467;-79
2022/07/28 01:20:40;;;;;;;8.23;7.03;;;15.70;99.90;;;;;;6151871;23;20030;-79
2022/07/28 01:23:11;;;;;;;7.38;6.68;;;15.70;99.90;;;;;;6130987;23;20048;-80
2022/07/28 01:26:23;;;;;;;7.00;6.43;;;15.60;99.90;;;;;;6161362;23;20014;-79
2022/07/28 01:29:23;;;;;;;7.97;6.97;;;15.60;99.90;;;;;;6119568;23;20036;-79
2022/07/28 01:32:09;;;;;;;8.38;7.60;;;15.50;99.90;;;;;;6111536;23;20033;-79
2022/07/28 01:34:46;;;;;;;9.10;7.63;;;15.50;99.90;;;;;;6133134;23;20017;-79
2022/07/28 01:37:19;;;;;;;7.25;6.60;;;15.50;99.90;;;;;;6160865;23;20017;-80
2022/07/28 01:39:52;;;;;;;6.70;5.90;;;15.50;99.90;;;;;;6124475;23;20026;-80
2022/07/28 01:42:24;;;;;;;7.55;6.88;;;15.60;99.90;;;;;;6160980;23;20021;-80
2022/07/28 01:44:54;;;;;;;7.40;6.63;;;15.50;99.90;;;;;;6150145;23;20302;-79
2022/07/28 01:47:24;;;;;;;8.55;6.43;;;15.50;99.90;;;;;;6156041;23;20021;-79
2022/07/28 01:49:54;;;;;;;8.82;6.43;;;15.40;99.90;;;;;;6134842;23;20047;-80
2022/07/28 01:52:23;;;;;;;6.32;5.72;;;15.40;99.90;;;;;;6124139;23;20036;-79
2022/07/28 01:54:53;;;;;;;7.13;6.25;;;15.40;99.90;;;;;;6131970;23;20024;-79
2022/07/28 01:57:24;;;;;;;7.45;6.20;;;15.30;99.90;;;;;;6124600;23;20349;-78
2022/07/28 01:59:59;;;;;;;8.23;7.43;;;15.30;99.90;;;;;;6123592;23;20033;-80
2022/07/28 02:02:29;;;;;;;8.68;7.55;;;15.30;99.90;;;;;;6123577;23;20032;-80
2022/07/28 02:04:59;;;;;;;8.85;6.93;;;15.30;99.90;;;;;;6161541;23;20024;-80
2022/07/28 02:07:29;;;;;;;8.15;7.25;;;15.20;99.90;;;;;;6129545;23;20021;-80
2022/07/28 02:09:59;;;;;;;7.35;6.65;;;15.20;99.90;;;;;;6160902;23;20472;-80
2022/07/28 02:12:28;;;;;;;11.43;6.60;;;15.10;99.90;;;;;;6150532;23;20353;-80
2022/07/28 02:14:58;;;;;;;7.20;6.20;;;15.10;99.90;;;;;;6157970;23;20261;-80
2022/07/28 02:17:30;;;;;;;9.35;7.18;;;15.10;99.90;;;;;;6160904;23;20014;-80
2022/07/28 02:19:59;;;;;;;7.40;6.70;;;15.00;99.90;;;;;;6153108;23;20032;-80
2022/07/28 02:22:27;;;;;;;9.13;7.15;;;14.90;99.90;;;;;;6159593;23;20345;-79
2022/07/28 02:24:55;;;;;;;11.30;7.03;;;14.90;99.90;;;;;;6125151;23;20021;-80
2022/07/28 02:27:48;;;;;;;8.65;6.25;;;14.80;99.90;;;;;;6156062;23;20021;-80
2022/07/28 02:30:49;;;;;;;6.18;5.57;;;14.90;99.90;;;;;;6134389;23;20017;-80
2022/07/28 02:33:21;;;;;;;7.53;6.82;;;14.80;99.90;;;;;;6177550;23;20034;-79
2022/07/28 02:36:14;;;;;;;7.65;6.95;;;14.80;99.90;;;;;;6153068;23;20041;-80
2022/07/28 02:38:45;;;;;;;9.60;7.00;;;14.80;99.90;;;;;;6157781;23;20025;-80
2022/07/28 02:41:43;;;;;;;8.00;7.20;;;14.80;99.90;;;;;;6160617;23;20013;-80
2022/07/28 02:44:16;;;;;;;11.98;8.60;;;14.80;99.90;;;;;;6133089;23;20029;-80
2022/07/28 02:46:48;;;;;;;9.20;7.65;;;14.80;99.90;;;;;;6158914;23;20338;-80
2022/07/28 02:49:21;;;;;;;11.98;6.03;;;14.80;99.90;;;;;;6160439;23;20579;-80
2022/07/28 02:51:51;;;;;;;7.68;6.05;;;14.80;99.90;;;;;;6153336;23;20029;-79
2022/07/28 02:54:20;;;;;;;7.37;6.70;;;14.70;99.90;;;;;;6161109;23;20341;-79
2022/07/28 02:56:50;;;;;;;6.68;6.05;;;14.70;99.90;;;;;;6123623;23;20026;-80
2022/07/28 02:59:22;;;;;;;8.65;6.97;;;14.70;99.90;;;;;;6152456;23;20036;-79
2022/07/28 03:01:57;;;;;;;12.05;8.43;;;14.60;99.90;;;;;;6160768;23;20018;-80
2022/07/28 03:07:12;;;;;;;9.80;7.43;;;14.70;99.90;;;;;;6155724;23;20025;-79
2022/07/28 03:09:41;;;;;;;12.30;7.20;;;14.70;99.90;;;;;;6160152;23;20067;-79
2022/07/28 03:12:10;;;;;;;9.48;8.55;;;14.60;99.90;;;;;;6152795;23;20345;-79
2022/07/28 03:14:38;;;;;;;9.38;7.00;;;14.60;99.90;;;;;;6132240;23;20024;-79
2022/07/28 03:17:06;;;;;;;7.53;6.72;;;14.60;99.90;;;;;;6124359;23;20028;-79
2022/07/28 03:19:33;;;;;;;6.55;5.95;;;14.60;99.90;;;;;;6123533;23;20037;-80
2022/07/28 03:22:02;;;;;;;9.13;7.32;;;14.50;99.90;;;;;;6160145;23;20405;-80
2022/07/28 03:24:34;;;;;;;7.03;6.32;;;14.60;99.90;;;;;;6150871;23;20485;-80
2022/07/28 03:27:27;;;;;;;6.32;5.72;;;14.60;99.90;;;;;;6156495;23;20024;-79
2022/07/28 03:30:06;;;;;;;6.28;5.68;;;14.50;99.90;;;;;;6150186;23;20028;-79
2022/07/28 03:32:40;;;;;;;7.10;6.40;;;14.50;99.90;;;;;;6150570;23;20044;-79
2022/07/28 03:35:09;;;;;;;7.90;7.20;;;14.40;99.90;;;;;;6156397;23;20025;-80
2022/07/28 03:38:06;;;;;;;9.98;6.80;;;14.40;99.90;;;;;;6159616;23;20018;-79
2022/07/28 03:40:35;;;;;;;7.00;6.35;;;14.40;99.90;;;;;;6150304;23;20030;-79
2022/07/28 03:43:07;;;;;;;6.32;5.72;;;14.40;99.90;;;;;;6156786;23;20021;-79
2022/07/28 03:45:35;;;;;;;7.82;7.03;;;14.30;99.90;;;;;;6160196;23;20341;-80
2022/07/28 03:48:07;;;;;;;9.82;6.63;;;14.30;99.90;;;;;;6152208;23;20026;-79
2022/07/28 03:50:35;;;;;;;8.18;6.47;;;14.20;99.90;;;;;;6158591;23;20349;-79
2022/07/28 03:53:02;;;;;;;7.70;6.97;;;14.10;99.90;;;;;;6149969;23;20021;-80
2022/07/28 03:55:30;;;;;;;11.48;7.65;;;14.10;99.90;;;;;;6154532;23;20335;-79
2022/07/28 03:57:58;;;;;;;8.77;6.57;;;14.20;99.90;;;;;;6158475;23;20465;-79
2022/07/28 04:00:26;;;;;;;9.68;8.30;;;14.10;99.90;;;;;;6148197;23;20021;-79
2022/07/28 04:02:53;;;;;;;6.60;5.65;;;14.10;99.90;;;;;;6156656;23;20346;-80
2022/07/28 04:05:21;;;;;;;11.55;5.82;;;14.10;99.90;;;;;;6159453;23;20021;-79
2022/07/28 04:07:49;;;;;;;9.63;6.93;;;14.10;99.90;;;;;;6152510;23;20533;-80
2022/07/28 04:10:17;;;;;;;6.97;6.05;;;14.10;99.90;;;;;;6159507;23;20021;-79
2022/07/28 04:12:46;;;;;;;7.25;6.55;;;14.20;99.90;;;;;;6147379;23;20036;-79
2022/07/28 04:15:14;;;;;;;8.40;7.53;;;14.20;99.90;;;;;;6155384;23;20025;-80
2022/07/28 04:17:42;;;;;;;12.57;9.05;;;14.20;99.90;;;;;;6159426;23;20021;-79
2022/07/28 04:20:11;;;;;;;7.97;6.10;;;14.20;99.90;;;;;;6151616;23;20025;-79
2022/07/28 04:22:38;;;;;;;8.63;7.75;;;14.20;99.90;;;;;;6157021;23;20446;-79
2022/07/28 04:25:07;;;;;;;10.13;7.53;;;14.20;99.90;;;;;;6160907;23;20013;-79
2022/07/28 04:27:35;;;;;;;6.65;5.63;;;14.30;99.90;;;;;;6124657;23;20022;-78
2022/07/28 04:30:16;;;;;;;9.95;8.50;;;14.30;99.90;;;;;;6135267;23;20018;-79
2022/07/28 04:32:48;;;;;;;7.88;7.07;;;14.40;99.90;;;;;;6150051;23;20033;-80
2022/07/28 04:35:17;;;;;;;11.02;6.88;;;14.30;99.90;;;;;;6155725;23;20033;-78
2022/07/28 04:37:47;;;;;;;13.68;7.55;;;14.30;99.90;;;;;;6160894;23;20017;-79
2022/07/28 04:40:15;;;;;;;10.23;6.78;;;14.30;99.90;;;;;;6151780;23;20342;-77
2022/07/28 04:42:43;;;;;;;7.18;6.47;;;14.40;99.90;;;;;;6159484;23;20799;-81
2022/07/28 04:45:11;;;;;;;8.80;7.90;;;14.50;99.90;;;;;;6160700;23;20067;-78
2022/07/28 04:47:39;;;;;;;11.15;7.20;;;14.50;99.90;;;;;;6153470;23;20060;-79
2022/07/28 04:50:08;;;;;;;8.55;7.63;;;14.60;99.90;;;;;;6123601;23;20021;-78
2022/07/28 04:52:37;;;;;;;11.73;6.97;;;14.60;99.90;;;;;;6148896;23;20029;-80
2022/07/28 04:55:06;;;;;;;6.85;6.25;;;14.60;99.90;;;;;;6129947;23;20025;-78
2022/07/28 04:57:33;;;;;;;6.97;6.35;;;14.60;99.90;;;;;;6159076;23;20454;-78
2022/07/28 05:00:12;;;;;;;7.68;6.18;;;14.60;99.90;;;;;;6150234;23;20034;-78
2022/07/28 05:02:42;;;;;;;6.15;5.57;;;14.60;99.90;;;;;;6130763;23;20341;-79
2022/07/28 05:05:11;;;;;;;7.85;6.75;;;14.50;99.90;;;;;;6158758;23;20014;-77
2022/07/28 05:07:39;;;;;;;7.10;6.18;;;14.60;99.90;;;;;;6152625;23;20041;-77
2022/07/28 05:10:09;;;;;;;14.45;7.97;;;14.60;99.90;;;;;;6157907;23;20017;-78
2022/07/28 05:12:37;;;;;;;8.20;7.13;;;14.80;99.90;;;;;;6148011;23;20492;-77
2022/07/28 05:15:06;;;;;;;9.18;8.32;;;14.70;99.90;;;;;;6155470;23;20032;-78
2022/07/28 05:17:35;;;;;;;7.97;7.18;;;14.70;99.90;;;;;;6159137;23;20033;-77
2022/07/28 05:20:04;;;;;;;8.55;7.70;;;14.70;99.90;;;;;;6151563;23;20033;-78
2022/07/28 05:22:42;;;;;;;12.85;6.43;;;14.70;99.90;;;;;;6156575;23;20017;-78
2022/07/28 05:25:28;;;;;;;8.43;7.57;;;14.70;99.90;;;;;;6158908;23;20017;-78
2022/07/28 05:27:56;;;;;;;11.15;8.07;;;14.80;99.90;;;;;;6151220;23;20030;-78
2022/07/28 05:30:24;;;;;;;8.07;6.68;;;14.90;99.90;;;;;;6156862;23;20018;-77
2022/07/28 05:32:52;;;;;;;8.73;7.88;;;15.10;99.90;;;;;;6158736;23;20027;-78
2022/07/28 05:35:20;;;;;;;8.27;6.93;;;15.20;99.90;;;;;;6153918;23;20044;-78
2022/07/28 05:37:48;;;;;;;11.43;9.50;;;15.30;99.90;;;;;;6157919;23;20017;-78
2022/07/28 05:40:17;;;;;;;10.35;7.07;;;15.50;99.90;;;;;;6149648;23;20025;-78
2022/07/28 05:42:46;;;;;;;9.10;8.30;;;15.60;99.90;;;;;;6156105;23;20025;-78
2022/07/28 05:45:15;;;;;;;14.93;8.57;;;15.70;99.90;;;;;;6159527;23;20013;-78
2022/07/28 05:47:47;;;;;;;9.75;8.25;;;15.70;99.90;;;;;;6152016;23;20524;-77
2022/07/28 05:50:16;;;;;;;10.50;7.70;;;15.80;99.90;;;;;;6158153;23;20400;-78
2022/07/28 05:52:46;;;;;;;8.23;7.50;;;15.90;99.90;;;;;;6147314;23;20445;-78
2022/07/28 05:55:14;;;;;;;8.48;7.43;;;16.10;99.90;;;;;;6129027;23;20029;-78
2022/07/28 05:57:43;;;;;;;12.27;8.27;;;16.10;99.90;;;;;;6159335;23;20016;-79
2022/07/28 06:00:13;;;;;;;10.45;7.90;;;16.20;99.90;;;;;;6120540;23;20488;-79
2022/07/28 06:02:46;;;;;;;7.95;6.78;;;16.30;99.90;;;;;;6157586;23;20037;-78
2022/07/28 06:05:17;;;;;;;9.48;8.40;;;16.40;99.90;;;;;;6124149;23;20021;-78
2022/07/28 06:07:46;;;;;;;7.82;6.28;;;16.40;99.90;;;;;;6126639;23;20025;-79
2022/07/28 06:10:16;;;;;;;13.10;8.77;;;16.50;99.90;;;;;;6159320;23;20021;-78
2022/07/28 06:12:50;;;;;;;7.72;7.03;;;16.60;99.90;;;;;;6148998;23;20052;-79
2022/07/28 06:15:24;;;;;;;6.57;5.47;;;16.50;99.90;;;;;;6154643;23;20033;-80
2022/07/28 06:17:54;;;;;;;9.23;8.23;;;16.60;99.90;;;;;;6159368;23;20325;-78
2022/07/28 06:20:23;;;;;;;8.52;7.72;;;16.60;99.90;;;;;;6151183;23;20030;-79
2022/07/28 06:22:52;;;;;;;10.23;6.63;;;16.70;99.90;;;;;;6155813;23;20036;-79
2022/07/28 06:25:26;;;;;;;8.52;7.60;;;16.70;99.90;;;;;;6160264;23;20020;-79
2022/07/28 06:27:59;;;;;;;9.95;6.72;;;16.80;99.90;;;;;;6152940;23;20029;-79
2022/07/28 06:30:28;;;;;;;7.40;6.28;;;16.90;99.90;;;;;;6123595;23;20017;-80
2022/07/28 06:33:00;;;;;;;7.80;6.90;;;16.90;99.90;;;;;;6124323;23;20013;-80
2022/07/28 06:35:28;;;;;;;9.93;7.15;;;17.00;99.90;;;;;;6155437;23;20026;-82
2022/07/28 06:37:56;;;;;;;9.10;8.15;;;17.20;99.90;;;;;;6159239;23;20017;-79
2022/07/28 06:40:24;;;;;;;7.47;6.78;;;17.20;99.90;;;;;;6149290;23;20025;-79
2022/07/28 06:42:51;;;;;;;8.52;7.63;;;17.20;99.90;;;;;;6157307;23;20033;-79
2022/07/28 06:45:20;;;;;;;9.00;7.40;;;17.20;99.90;;;;;;6123741;23;20025;-79
2022/07/28 06:47:49;;;;;;;8.55;7.07;;;17.30;99.90;;;;;;6152781;23;20022;-78
2022/07/28 06:50:17;;;;;;;13.48;9.35;;;17.40;99.90;;;;;;6159271;23;20013;-80
2022/07/28 06:52:57;;;;;;;17.58;8.23;;;17.40;99.90;;;;;;6155684;23;20040;-80
2022/07/28 06:55:26;;;;;;;7.95;7.15;;;17.50;99.90;;;;;;6154862;23;20465;-79
2022/07/28 06:58:04;;;;;;;9.13;8.23;;;17.60;99.90;;;;;;6157328;23;20029;-79
2022/07/28 07:00:36;;;;;;;13.25;6.90;;;17.50;99.90;;;;;;6150239;23;20029;-80
2022/07/28 07:03:04;;;;;;;7.88;7.03;;;17.50;99.90;;;;;;6156072;23;20813;-81
2022/07/28 07:05:36;;;;;;;7.47;6.68;;;17.60;99.90;;;;;;6160568;23;20013;-82
2022/07/28 07:08:04;;;;;;;9.43;7.63;;;17.60;99.90;;;;;;6127979;23;20026;-83
2022/07/28 07:10:32;;;;;;;7.65;6.82;;;17.70;99.90;;;;;;6160005;23;20013;-83
2022/07/28 07:13:01;;;;;;;7.15;6.47;;;17.80;99.90;;;;;;6125578;23;20024;-81
2022/07/28 07:15:32;;;;;;;7.30;6.60;;;17.70;99.90;;;;;;6150148;23;20022;-83
2022/07/28 07:18:01;;;;;;;8.23;6.25;;;17.60;99.90;;;;;;6124973;23;20029;-82
2022/07/28 07:20:29;;;;;;;11.23;7.07;;;17.80;99.90;;;;;;6100287;23;20025;-82
2022/07/28 07:22:57;;;;;;;9.60;7.70;;;18.00;99.90;;;;;;6157596;23;20025;-83
2022/07/28 07:25:25;;;;;;;5.90;5.40;;;18.20;99.90;;;;;;6160569;23;20032;-82
2022/07/28 07:27:52;;;;;;;7.15;6.55;;;18.40;99.90;;;;;;6124281;23;20033;-83
2022/07/28 07:31:04;;;;;;;7.00;6.32;;;18.50;99.90;;;;;;6124520;23;20028;-83
2022/07/28 07:33:32;;;;;;;9.23;8.05;;;18.70;99.90;;;;;;6129155;23;20018;-83
2022/07/28 07:36:00;;;;;;;7.22;6.53;;;18.70;99.90;;;;;;6153420;23;20040;-83
2022/07/28 07:38:28;;;;;;;7.47;6.68;;;18.90;99.90;;;;;;6123506;23;20026;-82
2022/07/28 07:40:56;;;;;;;27.27;6.85;;;19.10;99.90;;;;;;6124498;23;20449;-82
2022/07/28 07:43:24;;;;;;;7.20;6.50;;;19.20;99.90;;;;;;6129994;23;20041;-82
2022/07/28 07:45:52;;;;;;;7.25;6.60;;;19.20;99.90;;;;;;6110498;23;20013;-84
2022/07/28 07:48:20;;;;;;;8.77;6.03;;;19.30;99.90;;;;;;6125804;23;20028;-83
2022/07/28 07:50:48;;;;;;;7.97;5.97;;;19.30;99.90;;;;;;6124619;23;20076;-83
2022/07/28 07:53:21;;;;;;;6.90;6.30;;;19.30;99.90;;;;;;6160290;23;20018;-84
2022/07/28 07:55:51;;;;;;;11.13;6.95;;;19.40;99.90;;;;;;6154322;23;20033;-83
2022/07/28 07:58:19;;;;;;;7.43;5.35;;;19.50;99.90;;;;;;6124497;23;20440;-83
2022/07/28 08:00:53;;;;;;;6.05;5.50;;;19.60;99.90;;;;;;6126719;23;20029;-85
2022/07/28 08:03:21;;;;;;;6.43;5.93;;;19.60;99.90;;;;;;6131743;23;20025;-81
2022/07/28 08:05:55;;;;;;;7.93;6.45;;;19.60;99.90;;;;;;6136932;23;20036;-83
2022/07/28 08:08:23;;;;;;;;;;;19.50;99.90;;;;;;6153760;23;20025;-82
2022/07/28 08:10:52;;;;;;;7.60;6.88;;;19.50;99.90;;;;;;6133913;23;19942;-87
2022/07/28 08:13:21;;;;;;;6.78;5.70;;;19.60;99.90;;;;;;6138300;23;20017;-82
2022/07/28 08:15:49;;;;;;;6.47;5.88;;;19.70;99.90;;;;;;6127702;23;20021;-84
2022/07/28 08:18:17;;;;;;;8.38;5.93;;;19.80;99.90;;;;;;6137066;23;20449;-83
2022/07/28 08:20:45;;;;;;;5.53;5.00;;;19.90;99.90;;;;;;6126854;23;20029;-84
2022/07/28 08:23:14;;;;;;;5.70;4.80;;;20.00;99.90;;;;;;6133497;23;20024;-84
2022/07/28 08:25:43;;;;;;;7.55;5.68;;;20.10;99.90;;;;;;6127822;23;20370;-82
2022/07/28 08:28:11;;;;;;;5.50;5.10;;;20.10;99.90;;;;;;6128986;23;20040;-84
2022/07/28 08:30:50;;;;;;;9.05;5.97;;;20.30;99.90;;;;;;6111915;23;20018;-84
2022/07/28 08:33:20;;;;;;;11.18;5.85;;;20.50;99.90;;;;;;6128249;23;20345;-83
2022/07/28 08:35:51;;;;;;;6.90;4.30;;;20.60;99.90;;;;;;6131337;23;20747;-82
2022/07/28 08:38:23;;;;;;;7.57;6.68;;;20.70;99.90;;;;;;6125888;23;20024;-83
2022/07/28 08:40:56;;;;;;;11.77;6.97;;;20.80;99.90;;;;;;6136936;23;20017;-84
2022/07/28 08:43:37;;;;;;;6.00;5.38;;;20.80;99.90;;;;;;6108602;23;20021;-84
2022/07/28 08:46:05;;;;;;;7.53;4.53;;;20.80;99.90;;;;;;6113634;23;20022;-82
2022/07/28 08:48:35;;;;;;;6.72;5.65;;;20.80;99.90;;;;;;6154822;23;20327;-84
2022/07/28 08:51:10;;;;;;;5.68;4.93;;;20.70;99.90;;;;;;6161073;23;20018;-84
2022/07/28 08:53:40;;;;;;;6.75;5.93;;;20.80;99.90;;;;;;6103431;23;20017;-83
2022/07/28 08:56:11;;;;;;;5.47;4.97;;;20.80;99.90;;;;;;6156212;23;20029;-84
2022/07/28 08:58:42;;;;;;;5.60;4.22;;;20.70;99.90;;;;;;6127499;23;20026;-83
2022/07/28 09:01:16;;;;;;;6.20;4.63;;;20.60;99.90;;;;;;6139095;23;20025;-84
2022/07/28 09:03:52;;;;;;;5.13;4.63;;;20.70;99.90;;;;;;6128417;23;20021;-84
2022/07/28 09:06:25;;;;;;;5.22;4.72;;;20.70;99.90;;;;;;6137837;23;20025;-85
2022/07/28 09:08:53;;;;;;;5.07;4.32;;;20.90;99.90;;;;;;6103700;23;20017;-83
2022/07/28 09:11:21;;;;;;;4.72;4.22;;;21.00;99.90;;;;;;6159963;23;20475;-84
2022/07/28 09:13:50;;;;;;;4.10;3.72;;;21.10;99.90;;;;;;6165002;23;20338;-84
2022/07/28 09:16:20;;;;;;;5.65;4.57;;;21.20;99.90;;;;;;6152939;23;20544;-82
2022/07/28 09:18:48;;;;;;;4.05;3.55;;;21.20;99.90;;;;;;6163161;23;20441;-83
2022/07/28 09:21:16;;;;;;;13.52;5.80;;;21.20;99.90;;;;;;6128516;23;20033;-83
2022/07/28 09:23:47;;;;;;;4.10;3.70;;;21.30;99.90;;;;;;6126793;23;20618;-83
2022/07/28 09:26:17;;;;;;;9.40;4.75;;;21.30;99.90;;;;;;6129393;23;20029;-82
2022/07/28 09:28:53;;;;;;;5.60;5.18;;;21.30;99.90;;;;;;6152909;23;20025;-83
2022/07/28 09:31:23;;;;;;;4.93;4.53;;;21.10;99.90;;;;;;6157486;23;20021;-82
2022/07/28 09:33:56;;;;;;;5.43;3.90;;;21.00;99.90;;;;;;6162717;23;20575;-84
2022/07/28 09:36:24;;;;;;;5.72;4.63;;;21.10;99.90;;;;;;6127563;23;20021;-82
2022/07/28 09:38:53;;;;;;;7.68;4.32;;;21.20;99.90;;;;;;6129063;23;20018;-83
2022/07/28 09:41:22;;;;;;;3.65;3.25;;;21.30;99.90;;;;;;6137714;23;20028;-84
2022/07/28 09:43:51;;;;;;;3.60;3.30;;;21.30;99.90;;;;;;6128612;23;20041;-78
2022/07/28 09:46:24;;;;;;;4.32;3.83;;;21.40;99.90;;;;;;6157484;23;20460;-77
2022/07/28 09:48:55;;;;;;;6.05;4.25;;;21.50;99.90;;;;;;6121582;23;20338;-79
2022/07/28 09:51:28;;;;;;;4.25;3.85;;;21.70;99.90;;;;;;6152826;23;20025;-78
2022/07/28 09:54:13;;;;;;;5.68;4.10;;;21.70;99.90;;;;;;6158022;23;20021;-77
2022/07/28 09:56:44;;;;;;;4.07;3.53;;;21.70;99.90;;;;;;6097467;23;20033;-78
2022/07/28 09:59:12;;;;;;;4.32;3.95;;;21.70;99.90;;;;;;6145444;23;20025;-77
2022/07/28 10:01:59;;;;;;;5.38;3.35;;;21.80;99.90;;;;;;6121614;23;20022;-78
2022/07/28 10:04:37;;;;;;;4.38;3.20;;;21.90;99.90;;;;;;6148830;23;20028;-78
2022/07/28 10:07:10;;;;;;;4.22;3.65;;;21.90;99.90;;;;;;6126979;23;20036;-78
2022/07/28 10:09:38;;;;;;;3.83;3.45;;;21.90;99.90;;;;;;6157162;23;20021;-78
2022/07/28 10:12:20;;;;;;;7.82;3.47;;;21.90;99.90;;;;;;6096823;23;20033;-78
2022/07/28 10:14:50;;;;;;;4.28;3.97;;;21.80;99.90;;;;;;6120828;23;20032;-77
2022/07/28 10:17:28;;;;;;;4.28;3.90;;;21.80;99.90;;;;;;6130765;23;20014;-77
2022/07/28 10:20:02;;;;;;;3.72;3.05;;;21.90;99.90;;;;;;6123802;23;20029;-79
2022/07/28 10:22:36;;;;;;;3.35;3.03;;;22.00;99.90;;;;;;6095698;23;20024;-77
2022/07/28 10:25:13;;;;;;;5.88;3.90;;;22.00;99.90;;;;;;6107883;23;20013;-78
2022/07/28 10:27:41;;;;;;;3.97;3.67;;;22.00;99.90;;;;;;6120745;23;20448;-77
2022/07/28 10:30:13;;;;;;;6.18;3.13;;;21.90;99.90;;;;;;6130036;23;20013;-77
2022/07/28 10:32:43;;;;;;;4.35;3.05;;;22.00;99.90;;;;;;6096284;23;20033;-78
2022/07/28 10:35:15;;;;;;;3.65;3.35;;;22.00;99.90;;;;;;6122808;23;20480;-81
2022/07/28 10:37:52;;;;;;;4.20;3.30;;;22.00;99.90;;;;;;6132312;23;20041;-81
2022/07/28 10:40:25;;;;;;;8.35;5.07;;;22.10;99.90;;;;;;6123221;23;20040;-79
2022/07/28 10:42:55;;;;;;;4.35;3.28;;;22.20;99.90;;;;;;6155386;23;20025;-82
2022/07/28 10:45:47;;;;;;;6.35;4.18;;;22.10;99.90;;;;;;6076331;23;20480;-80
2022/07/28 10:48:39;;;;;;;16.73;7.35;;;22.20;99.90;;;;;;6103258;23;20036;-80
2022/07/28 10:51:14;;;;;;;3.97;3.58;;;22.30;99.90;;;;;;6121229;23;20033;-79
2022/07/28 10:53:45;;;;;;;3.42;3.00;;;22.40;99.90;;;;;;6158341;23;20488;-79
2022/07/28 10:56:37;;;;;;;5.85;2.67;;;22.50;99.90;;;;;;6125137;23;20018;-81
2022/07/28 10:59:12;;;;;;;3.67;2.28;;;22.50;99.90;;;;;;6124902;23;20329;-78
2022/07/28 11:01:41;;;;;;;4.10;3.70;;;22.50;99.90;;;;;;6132129;23;20018;-78
2022/07/28 11:04:46;;;;;;;9.38;4.18;;;22.50;99.90;;;;;;6125869;23;20032;-80
2022/07/28 11:07:21;;;;;;;13.60;4.80;;;22.60;99.90;;;;;;6121771;23;20022;-79
2022/07/28 11:09:52;;;;;;;3.25;2.95;;;22.80;99.90;;;;;;6156890;23;20017;-80
2022/07/28 11:12:50;;;;;;;7.63;4.57;;;22.90;99.90;;;;;;6148341;23;20044;-78
2022/07/28 11:15:30;;;;;;;3.45;2.70;;;23.00;99.90;;;;;;6152114;23;20026;-76
2022/07/28 11:18:04;;;;;;;3.50;2.78;;;22.90;99.90;;;;;;6130233;23;20021;-75
2022/07/28 11:20:55;;;;;;;5.05;3.47;;;22.80;99.90;;;;;;6147417;23;20030;-76
2022/07/28 11:23:46;;;;;;;2.55;2.35;;;22.70;99.90;;;;;;6150090;23;20029;-76
2022/07/28 11:26:23;;;;;;;3.92;3.10;;;22.80;99.90;;;;;;6155394;23;20323;-76
2022/07/28 11:29:21;;;;;;;3.97;2.72;;;22.90;99.90;;;;;;6145828;23;20572;-76
2022/07/28 11:32:25;;;;;;;3.55;3.13;;;22.90;99.90;;;;;;6127882;23;20076;-76
2022/07/28 11:35:17;;;;;;;2.83;2.60;;;23.00;99.90;;;;;;6120354;23;20022;-76
2022/07/28 11:38:00;;;;;;;6.13;2.90;;;23.00;99.90;;;;;;6100501;23;20021;-77
2022/07/28 11:40:28;;;;;;;17.65;3.15;;;23.00;99.90;;;;;;6124859;23;20036;-78
2022/07/28 11:43:25;;;;;;;5.65;3.95;;;23.20;99.90;;;;;;6157613;23;20446;-77
2022/07/28 11:46:03;;;;;;;2.83;2.42;;;23.10;99.90;;;;;;6124502;23;20021;-77
2022/07/28 11:48:39;;;;;;;4.03;2.95;;;23.20;99.90;;;;;;6125512;23;20029;-77
2022/07/28 11:51:12;;;;;;;4.13;2.70;;;23.10;99.90;;;;;;6130480;23;20018;-78
2022/07/28 11:53:40;;;;;;;3.45;3.13;;;23.20;99.90;;;;;;6133793;23;20442;-77
2022/07/28 11:56:09;;;;;;;4.82;3.03;;;23.20;99.90;;;;;;6153528;23;20021;-77
2022/07/28 11:58:38;;;;;;;4.13;2.90;;;23.30;99.90;;;;;;6157038;23;20026;-78
2022/07/28 12:01:15;;;;;;;3.13;2.67;;;23.40;99.90;;;;;;6161303;23;20020;-76
2022/07/28 12:03:50;;;;;;;3.90;2.63;;;23.30;99.90;;;;;;6154547;23;20349;-77
2022/07/28 12:06:24;;;;;;;6.78;2.65;;;23.40;99.90;;;;;;6159670;23;20017;-76
2022/07/28 12:09:03;;;;;;;4.10;3.30;;;23.40;99.90;;;;;;6161187;23;20017;-77
2022/07/28 12:11:33;;;;;;;4.88;3.45;;;23.40;99.90;;;;;;6129287;23;20025;-77
2022/07/28 12:14:12;;;;;;;5.73;2.83;;;23.40;99.90;;;;;;6161522;23;20314;-77
2022/07/28 12:16:45;;;;;;;5.15;3.08;;;23.40;99.90;;;;;;6151494;23;20022;-77
2022/07/28 12:19:20;;;;;;;3.35;3.00;;;23.50;99.90;;;;;;6156438;23;20025;-78
2022/07/28 12:21:55;;;;;;;4.13;3.65;;;23.60;99.90;;;;;;6161668;23;20014;-78
2022/07/28 12:24:32;;;;;;;2.63;2.42;;;23.70;99.90;;;;;;6152042;23;20030;-77
2022/07/28 12:27:13;;;;;;;2.78;2.58;;;23.80;99.90;;;;;;6157584;23;20037;-77
2022/07/28 12:29:54;;;;;;;2.80;2.60;;;23.80;99.90;;;;;;6161474;23;20480;-77
2022/07/28 12:32:29;;;;;;;6.30;3.10;;;23.80;99.90;;;;;;6153524;23;20029;-78
2022/07/28 12:34:57;;;;;;;7.97;2.70;;;23.70;99.90;;;;;;6157858;23;20033;-79
2022/07/28 12:37:25;;;;;;;4.07;2.63;;;23.80;99.90;;;;;;6161592;23;20021;-78
2022/07/28 12:39:53;;;;;;;5.45;2.75;;;23.90;99.90;;;;;;6155495;23;20029;-78
2022/07/28 12:42:21;;;;;;;2.60;2.40;;;24.00;99.90;;;;;;6161462;23;20028;-78
2022/07/28 12:44:50;;;;;;;7.70;3.55;;;24.10;99.90;;;;;;6161936;23;20014;-80
2022/07/28 12:47:25;;;;;;;3.80;3.45;;;24.10;99.90;;;;;;6129229;23;20048;-77
2022/07/28 12:50:14;;;;;;;3.70;2.88;;;24.00;99.90;;;;;;6159616;23;20013;-78
2022/07/28 12:52:44;;;;;;;5.40;2.75;;;24.00;99.90;;;;;;6149784;23;20029;-78
2022/07/28 12:55:31;;;;;;;6.35;2.42;;;24.10;99.90;;;;;;6123934;23;20029;-78
2022/07/28 12:58:04;;;;;;;3.40;2.50;;;24.20;99.90;;;;;;6156914;23;20021;-78
2022/07/28 13:00:48;;;;;;;7.53;2.70;;;24.20;99.90;;;;;;6148778;23;20029;-78
2022/07/28 13:03:23;;;;;;;4.10;2.60;;;24.30;99.90;;;;;;6154974;23;20348;-78
2022/07/28 13:06:02;;;;;;;4.30;2.60;;;24.40;99.90;;;;;;6159520;23;20018;-78
2022/07/28 13:08:44;;;;;;;11.38;3.38;;;24.30;99.90;;;;;;6148408;23;20033;-78
2022/07/28 13:11:16;;;;;;;5.82;2.88;;;24.30;99.90;;;;;;6128305;23;20029;-79
2022/07/28 13:14:04;;;;;;;2.95;2.70;;;24.30;99.90;;;;;;6138135;23;20015;-81
2022/07/28 13:16:33;;;;;;;2.47;2.28;;;24.30;99.90;;;;;;6124532;23;20029;-80
2022/07/28 13:19:03;;;;;;;2.45;2.25;;;24.30;99.90;;;;;;6156487;23;20475;-81